Teutopolis, IL (62467)

1:09 AM CDT on April 21, 2015 (GMT -0500)
N. Teutopolis | | Change Station
CLOSE
Current Station
Personal Weather Station
Location: Teutopolis, IL
Elevation: 587 ft
Nearby Weather Stations

Elev 587 ft 39.16 °N, 88.49 °W | Updated 10 minutes ago

Clear
Clear
45.8 °F
Feels Like 43 °F
N
6.0
Wind Variable Wind from SW
Gusts 10.0 mph

Today
High -- | Low -- °F
--% Chance of Precip.
Yesterday
High -- | Low -- °F
Precip. -- in
6:08 AM 7:36 PM
Waxing Crescent, 8% visible
Pressure 29.82 in
Visibility 10.0 miles
Clouds Clear
Windchill 43 °F
Dew Point 36 °F
Humidity 68%
Rainfall 0.00 in
Snow Depth Not available.
UV 0 out of 12
Pollen 5.60 out of 12
Air Quality Not available.
Flu Activity Regional
METAR K1H2 210555Z AUTO 19005KT 10SM CLR 07/00 A2982 RMK AO2 T00670000 10108 20067 401430067

More Conditions Fewer Conditions

Pressure 29.82 in
Visibility 10.0 miles
Clouds Clear
Windchill 43 °F
Dew Point 36 °F
Humidity 68%
Rainfall 0.00 in
Snow Depth Not available.
UV 0 out of 12
Pollen 5.60 out of 12
Air Quality Not available.
Flu Activity Regional
METAR K1H2 210555Z AUTO 19005KT 10SM CLR 07/00 A2982 RMK AO2 T00670000 10108 20067 401430067

More Conditions Fewer Conditions

10-Day Weather Forecast

Almanac

Astronomy

Apr. 21, 2015 Rise Set
Actual Time
Civil Twilight
Nautical Twilight
Astronomical Twilight
Moon
Length of Visible Light
Length of Day
Tomorrow will be .
, % of the Moon is Illuminated

Today's Extremes

State Highs State Lows

Community

WunderPhotos

Upload Photos

1,815,318 photos uploaded!

WunderBlogs® & News

Nearby

Air Quality

  Air Quality AQ Index Pollutant
Not available.

Snow Depth

Station Depth Elevation

Earthquake Activity

City Distance Mag. Time & Date
Minimum magnitude displayed is 2.5.

Coastal Water Temperatures

Place Temperature

Stations

Nearby Weather Stations

Station Location Temp. Windchill Dew Point Humidity Wind Precip. Elev Updated Type